Time;durP1;ratioP1;P1;durP2;ratioP2;P2;SDS_P1;SDS_P2;PMS_P1;PMS_P2;Temp;Humidity;BMP_temperature;BMP_pressure;BME280_temperature;BME280_humidity;BME280_pressure;Samples;Min_cycle;Max_cycle;Signal;HPM_P1;HPM_P2
2023/07/23 00:00:55;;;;;;;1999.90;999.90;;;;;;;17.46;57.25;97921.53;5077915;28;20102;-71
2023/07/23 00:03:21;;;;;;;1999.90;999.90;;;;;;;17.56;56.82;97927.69;5082436;28;20386;-71
2023/07/23 00:05:46;;;;;;;1999.90;999.90;;;;;;;17.68;56.84;97925.31;5071239;28;20032;-70
2023/07/23 00:08:13;;;;;;;1999.90;999.90;;;;;;;17.75;56.50;97925.75;5082264;28;20351;-71
2023/07/23 00:10:38;;;;;;;3.10;2.35;;;;;;;17.79;56.80;97926.78;5077659;28;20070;-71
2023/07/23 00:13:04;;;;;;;3.22;2.45;;;;;;;17.76;56.30;97921.91;5061230;28;20060;-72
2023/07/23 00:15:29;;;;;;;4.32;2.42;;;;;;;17.82;56.41;97926.19;5067667;28;20047;-72
2023/07/23 00:17:57;;;;;;;3.30;2.40;;;;;;;17.81;56.76;97919.09;5080342;28;20032;-72
2023/07/23 00:20:22;;;;;;;4.47;2.30;;;;;;;17.80;56.12;97931.13;5077696;28;20040;-73
2023/07/23 00:22:47;;;;;;;3.88;2.15;;;;;;;17.85;56.14;97928.28;5060892;28;20033;-72
2023/07/23 00:25:13;;;;;;;5.25;2.65;;;;;;;17.87;55.69;97922.56;5053998;28;20119;-72
2023/07/23 00:27:38;;;;;;;3.72;2.47;;;;;;;18.03;55.49;97920.38;5071128;28;20029;-73
2023/07/23 00:30:05;;;;;;;4.15;2.00;;;;;;;17.90;55.31;97928.22;5064012;28;20033;-72
2023/07/23 00:32:32;;;;;;;5.32;1.90;;;;;;;17.99;55.57;97927.53;5056404;28;20023;-74
2023/07/23 00:34:57;;;;;;;3.92;2.00;;;;;;;18.06;55.77;97919.78;5077500;28;20039;-72
2023/07/23 00:37:22;;;;;;;4.97;2.03;;;;;;;18.17;55.39;97915.78;5059633;28;20028;-73
2023/07/23 00:39:48;;;;;;;4.38;2.40;;;;;;;18.15;55.68;97907.91;5066332;28;20055;-73
2023/07/23 00:42:13;;;;;;;5.82;3.58;;;;;;;18.14;55.21;97911.72;5064766;28;20089;-73
2023/07/23 00:44:39;;;;;;;4.68;3.70;;;;;;;18.11;55.30;97900.63;5060231;28;20448;-73
2023/07/23 00:47:05;;;;;;;5.00;3.25;;;;;;;18.18;54.96;97903.78;5079976;28;20052;-73
2023/07/23 00:49:31;;;;;;;5.78;3.55;;;;;;;18.18;55.36;97909.22;5089467;28;20042;-75
2023/07/23 00:51:57;;;;;;;7.03;3.13;;;;;;;18.13;55.18;97909.31;5080941;28;20024;-73
2023/07/23 00:54:22;;;;;;;6.40;3.55;;;;;;;18.24;54.97;97906.09;5063753;28;20044;-72
2023/07/23 00:56:48;;;;;;;5.95;3.47;;;;;;;18.26;55.22;97903.88;5047852;28;20049;-72
2023/07/23 00:59:14;;;;;;;5.55;3.20;;;;;;;18.22;54.86;97900.16;5059886;28;20028;-73
2023/07/23 01:01:39;;;;;;;5.82;3.75;;;;;;;18.21;54.96;97900.44;5062992;28;20437;-73
2023/07/23 01:04:05;;;;;;;5.40;3.60;;;;;;;18.19;54.79;97891.75;5083732;28;20040;-74
2023/07/23 01:06:32;;;;;;;5.10;3.67;;;;;;;18.21;55.26;97887.63;5081229;28;20115;-73
2023/07/23 01:08:58;;;;;;;6.60;3.47;;;;;;;18.24;55.56;97891.66;5073007;28;20075;-74
2023/07/23 01:11:25;;;;;;;7.88;3.67;;;;;;;18.26;54.97;97892.16;5053470;28;20032;-75
2023/07/23 01:13:51;;;;;;;4.85;3.10;;;;;;;18.23;55.06;97892.75;5063432;28;20399;-74
2023/07/23 01:16:18;;;;;;;5.50;3.28;;;;;;;18.25;54.89;97890.56;5064008;28;20036;-74
2023/07/23 01:18:43;;;;;;;3.22;2.88;;;;;;;18.23;54.92;97893.56;5043852;28;20063;-73
2023/07/23 01:21:14;;;;;;;6.72;3.10;;;;;;;18.35;54.79;97890.34;5079672;28;20070;-74
2023/07/23 01:23:40;;;;;;;4.25;2.90;;;;;;;18.19;55.42;97880.84;5071907;28;20474;-73
2023/07/23 01:26:07;;;;;;;3.92;3.03;;;;;;;18.35;54.96;97891.16;5078968;28;20078;-72
2023/07/23 01:28:33;;;;;;;5.88;3.47;;;;;;;18.22;55.55;97880.25;5063474;28;20078;-71
2023/07/23 01:30:58;;;;;;;4.60;3.00;;;;;;;18.28;55.57;97884.47;5071927;28;20416;-73
2023/07/23 01:33:23;;;;;;;6.75;3.35;;;;;;;18.35;55.08;97879.44;5063018;28;20033;-72
2023/07/23 01:35:52;;;;;;;6.18;2.85;;;;;;;18.30;55.39;97871.34;5044497;28;20017;-75
2023/07/23 01:38:17;;;;;;;4.03;2.83;;;;;;;18.41;54.86;97878.25;5058359;28;20046;-72
2023/07/23 01:40:43;;;;;;;4.85;2.85;;;;;;;18.37;55.04;97877.22;5078485;28;20028;-74
2023/07/23 01:43:08;;;;;;;4.72;2.60;;;;;;;18.29;55.77;97875.22;5083412;28;20482;-74
2023/07/23 01:45:34;;;;;;;9.00;3.05;;;;;;;18.24;55.95;97872.56;5064616;28;20688;-74
2023/07/23 01:47:59;;;;;;;3.70;2.13;;;;;;;18.29;55.35;97880.66;5076506;28;20062;-74
2023/07/23 01:50:25;;;;;;;4.35;2.50;;;;;;;18.17;55.75;97883.06;5042619;28;20025;-73
2023/07/23 01:52:50;;;;;;;3.58;2.05;;;;;;;18.12;56.26;97877.69;5080186;28;20033;-73
2023/07/23 01:55:15;;;;;;;4.50;2.38;;;;;;;18.07;56.78;97884.06;5053422;28;20028;-73
2023/07/23 01:57:41;;;;;;;4.07;2.33;;;;;;;18.01;56.23;97879.00;5085442;28;20032;-73
2023/07/23 02:00:08;;;;;;;4.97;2.22;;;;;;;17.81;57.12;97870.06;5061044;28;20379;-73
2023/07/23 02:02:38;;;;;;;3.47;2.30;;;;;;;17.93;56.03;97878.59;5088775;28;20044;-75
2023/07/23 02:05:04;;;;;;;3.72;1.95;;;;;;;18.00;56.58;97882.81;5073974;28;20446;-73
2023/07/23 02:07:29;;;;;;;4.90;1.85;;;;;;;18.03;56.43;97879.50;5085485;28;20067;-72
2023/07/23 02:09:54;;;;;;;2.45;1.77;;;;;;;18.03;56.35;97879.50;5072224;28;20157;-72
2023/07/23 02:12:20;;;;;;;4.32;2.20;;;;;;;17.94;56.18;97877.50;5071280;28;20074;-73
2023/07/23 02:14:45;;;;;;;3.83;2.03;;;;;;;18.00;56.90;97882.81;5053044;28;20491;-74
2023/07/23 02:17:11;;;;;;;6.45;2.50;;;;;;;17.98;57.05;97874.13;5053159;28;20713;-74
2023/07/23 02:19:41;;;;;;;2.50;1.88;;;;;;;18.07;57.00;97883.25;5053736;28;20071;-75
2023/07/23 02:22:06;;;;;;;3.78;2.70;;;;;;;18.01;56.42;97879.00;5034993;28;20068;-74
2023/07/23 02:24:32;;;;;;;3.88;1.98;;;;;;;18.03;56.57;97877.59;5056792;28;20107;-72
2023/07/23 02:26:57;;;;;;;4.13;1.90;;;;;;;18.01;56.42;97874.38;5037600;28;20037;-73
2023/07/23 02:29:22;;;;;;;3.75;1.80;;;;;;;18.09;56.60;97875.56;5065594;28;20028;-73
2023/07/23 02:31:48;;;;;;;3.47;2.28;;;;;;;18.01;56.78;97881.72;5048732;28;20064;-73
2023/07/23 02:34:14;;;;;;;3.35;2.00;;;;;;;17.90;57.54;97884.63;5052831;28;20020;-72
2023/07/23 02:36:39;;;;;;;2.78;1.98;;;;;;;17.95;57.75;97887.25;5052869;28;20083;-73
2023/07/23 02:39:04;;;;;;;3.30;2.15;;;;;;;17.88;57.61;97881.38;5072310;28;20134;-73
2023/07/23 02:41:30;;;;;;;3.78;1.80;;;;;;;17.93;57.43;97875.03;5052629;28;20467;-72
2023/07/23 02:43:55;;;;;;;2.75;1.92;;;;;;;17.88;58.15;97875.94;5075353;28;20028;-72
2023/07/23 02:46:21;;;;;;;2.95;1.80;;;;;;;17.98;57.15;97868.69;5092953;28;20062;-72
2023/07/23 02:48:46;;;;;;;5.95;1.90;;;;;;;18.03;56.71;97871.31;5092788;28;20032;-72
2023/07/23 02:51:11;;;;;;;3.20;2.28;;;;;;;18.05;56.70;97869.91;5075922;28;20032;-72
2023/07/23 02:53:37;;;;;;;5.10;1.90;;;;;;;18.10;56.69;97874.47;5082133;28;20025;-72
2023/07/23 02:56:02;;;;;;;5.43;1.77;;;;;;;18.10;56.48;97877.19;5052977;28;20032;-73
2023/07/23 02:58:28;;;;;;;2.05;1.88;;;;;;;18.02;56.68;97877.91;5067933;28;20028;-75
2023/07/23 03:00:56;;;;;;;2.25;2.05;;;;;;;18.01;56.66;97868.09;5073651;28;20617;-75
2023/07/23 03:03:22;;;;;;;3.40;2.03;;;;;;;18.03;56.82;97876.78;5048802;28;20185;-76
2023/07/23 03:05:47;;;;;;;2.17;1.85;;;;;;;18.16;56.86;97870.53;5059009;28;20478;-75
2023/07/23 03:08:12;;;;;;;2.75;1.88;;;;;;;18.08;57.09;97879.41;5075568;28;20016;-73
2023/07/23 03:10:42;;;;;;;4.70;2.17;;;;;;;17.99;56.55;97871.13;5092495;28;20057;-73
2023/07/23 03:13:07;;;;;;;5.70;2.13;;;;;;;17.97;57.30;97884.22;5075278;28;20474;-72
2023/07/23 03:15:34;;;;;;;2.17;1.83;;;;;;;17.81;57.53;97875.53;5075825;28;20093;-73
2023/07/23 03:17:59;;;;;;;2.60;1.88;;;;;;;17.80;57.76;97879.38;5075722;28;20028;-72
2023/07/23 03:20:25;;;;;;;3.00;1.55;;;;;;;17.92;57.49;97879.69;5075405;28;20051;-72
2023/07/23 03:22:50;;;;;;;3.50;1.98;;;;;;;17.81;58.06;97869.25;5058378;28;20055;-73
2023/07/23 03:25:16;;;;;;;3.40;2.00;;;;;;;17.93;57.40;97867.69;5054648;28;20045;-73
2023/07/23 03:27:42;;;;;;;2.20;1.85;;;;;;;17.53;58.41;97875.72;5071935;28;20035;-73
2023/07/23 03:30:08;;;;;;;5.70;2.13;;;;;;;17.55;58.76;97866.16;5072300;28;20029;-74
2023/07/23 03:32:33;;;;;;;3.08;2.00;;;;;;;17.53;58.87;97862.91;5049481;28;20398;-74
2023/07/23 03:34:59;;;;;;;3.67;2.63;;;;;;;17.39;59.24;97867.47;5075002;28;20050;-75
2023/07/23 03:37:24;;;;;;;4.93;2.22;;;;;;;17.64;58.55;97856.19;5075190;28;20031;-75
2023/07/23 03:39:49;;;;;;;2.60;2.00;;;;;;;17.72;58.32;97871.03;5093221;28;20119;-74
2023/07/23 03:42:15;;;;;;;4.78;2.38;;;;;;;17.42;59.20;97872.31;5092274;28;20028;-75
2023/07/23 03:44:40;;;;;;;2.53;1.73;;;;;;;17.38;59.61;97865.88;5091857;28;20032;-74
2023/07/23 03:47:12;;;;;;;7.20;2.45;;;;;;;17.37;59.22;97861.50;5075217;28;20016;-73
2023/07/23 03:49:37;;;;;;;7.30;4.43;;;;;;;17.55;58.40;97868.88;5075479;28;20038;-74
2023/07/23 03:52:04;;;;;;;7.38;4.95;;;;;;;17.43;58.69;97865.78;5044327;28;20033;-76
2023/07/23 03:54:30;;;;;;;8.40;4.38;;;;;;;17.46;59.49;97865.19;5073009;28;20039;-76
2023/07/23 03:56:55;;;;;;;7.40;4.82;;;;;;;17.58;58.72;97865.56;5092341;28;20028;-76
2023/07/23 03:59:21;;;;;;;6.85;4.53;;;;;;;17.53;58.80;97862.91;5058286;28;20036;-76
2023/07/23 04:01:46;;;;;;;6.10;4.80;;;;;;;17.34;59.64;97859.38;5075626;28;20039;-74
2023/07/23 04:04:11;;;;;;;7.30;4.88;;;;;;;17.21;60.37;97865.56;5037525;28;20052;-75
2023/07/23 04:06:37;;;;;;;7.53;4.60;;;;;;;17.42;59.75;97872.31;5071833;28;20024;-75
2023/07/23 04:09:02;;;;;;;6.30;4.57;;;;;;;17.53;59.50;97860.19;5051823;28;20059;-75
2023/07/23 04:11:28;;;;;;;6.40;4.82;;;;;;;17.47;59.41;97861.38;5071709;28;20031;-75
2023/07/23 04:13:54;;;;;;;8.20;4.75;;;;;;;17.35;60.00;97860.19;5072619;28;20430;-75
2023/07/23 04:16:19;;;;;;;6.22;4.40;;;;;;;17.41;59.63;97859.81;5071453;28;20036;-75
2023/07/23 04:18:49;;;;;;;5.80;4.22;;;;;;;17.39;59.57;97862.03;5055007;28;20405;-75
2023/07/23 04:21:16;;;;;;;8.75;4.18;;;;;;;17.52;59.52;97861.31;5060812;28;20037;-73
2023/07/23 04:23:45;;;;;;;7.18;4.10;;;;;;;17.68;58.70;97862.69;5071464;28;20024;-73
2023/07/23 04:26:11;;;;;;;5.70;3.58;;;;;;;17.63;58.29;97854.59;5079524;28;20075;-74
2023/07/23 04:28:36;;;;;;;5.53;3.78;;;;;;;17.54;59.60;97870.00;5067668;28;20025;-73
2023/07/23 04:31:01;;;;;;;5.50;3.80;;;;;;;17.47;59.65;97869.53;5064795;28;20032;-73
2023/07/23 04:33:27;;;;;;;5.95;3.60;;;;;;;17.63;59.30;97876.38;5084223;28;20059;-73
2023/07/23 04:35:52;;;;;;;4.90;3.83;;;;;;;17.61;59.50;97870.41;5066055;28;20040;-73
2023/07/23 04:38:17;;;;;;;7.32;4.47;;;;;;;17.72;59.53;97865.59;5060515;28;20070;-73
2023/07/23 04:40:46;;;;;;;5.05;3.60;;;;;;;17.67;59.44;97863.78;5079319;28;20078;-72
2023/07/23 04:43:11;;;;;;;5.60;3.63;;;;;;;17.67;58.93;97852.06;5073001;28;20073;-75
2023/07/23 04:45:38;;;;;;;3.92;3.22;;;;;;;18.00;58.25;97861.84;5087189;28;20028;-74
2023/07/23 04:48:03;;;;;;;6.43;4.00;;;;;;;17.80;58.95;97865.75;5078577;28;20020;-76
2023/07/23 04:50:29;;;;;;;82.40;9.77;;;;;;;17.80;58.61;97863.03;5074690;28;20032;-76
2023/07/23 04:52:54;;;;;;;6.20;3.88;;;;;;;18.03;58.44;97863.16;5072942;28;20029;-72
2023/07/23 04:55:19;;;;;;;4.65;3.90;;;;;;;18.13;57.97;97865.72;5072185;28;20036;-77
2023/07/23 04:57:45;;;;;;;21.85;20.27;;;;;;;18.18;57.67;97855.50;5060029;28;20042;-77
2023/07/23 05:00:11;;;;;;;6.95;4.25;;;;;;;18.26;57.58;97863.00;5090949;28;20552;-75
2023/07/23 05:02:36;;;;;;;4.75;3.40;;;;;;;18.28;57.38;97857.22;5073505;28;20024;-76
2023/07/23 05:05:02;;;;;;;5.72;3.75;;;;;;;18.37;57.16;97853.50;5090809;28;20032;-75
2023/07/23 05:07:27;;;;;;;7.90;3.83;;;;;;;18.59;56.84;97852.81;5073787;28;20385;-76
2023/07/23 05:09:52;;;;;;;6.38;3.97;;;;;;;18.43;56.73;97865.13;5074498;28;20401;-76
2023/07/23 05:12:18;;;;;;;6.25;4.10;;;;;;;18.54;57.04;97858.38;5090859;28;20020;-76
2023/07/23 05:14:46;;;;;;;5.85;4.28;;;;;;;18.55;56.97;97857.28;5079281;28;20051;-74
2023/07/23 05:17:12;;;;;;;5.75;4.32;;;;;;;18.56;56.67;97864.31;5071798;28;20038;-75
2023/07/23 05:19:37;;;;;;;4.18;3.65;;;;;;;18.81;56.38;97855.59;5073549;28;20123;-72
2023/07/23 05:22:03;;;;;;;5.13;3.22;;;;;;;18.75;55.95;97862.28;5072986;28;20109;-72
2023/07/23 05:24:28;;;;;;;5.65;3.80;;;;;;;18.87;56.69;97868.03;5071717;28;20482;-72
2023/07/23 05:26:54;;;;;;;6.10;3.83;;;;;;;18.91;56.27;97858.13;5069594;28;20040;-74
2023/07/23 05:29:19;;;;;;;6.25;3.65;;;;;;;19.10;55.26;97847.06;5071213;28;20499;-74
2023/07/23 05:31:44;;;;;;;7.97;3.42;;;;;;;19.04;55.78;97864.69;5071148;28;20031;-74
2023/07/23 05:34:10;;;;;;;6.45;3.70;;;;;;;19.28;55.62;97849.63;5069684;28;20456;-70
2023/07/23 05:36:35;;;;;;;5.15;4.65;;;;;;;19.25;55.67;97844.78;5071082;28;20033;-71
2023/07/23 05:39:01;;;;;;;4.93;3.58;;;;;;;19.30;55.41;97858.31;5071089;28;20137;-70
2023/07/23 05:41:26;;;;;;;6.03;3.15;;;;;;;19.30;55.71;97858.31;5071173;28;20036;-70
2023/07/23 05:43:51;;;;;;;4.80;3.47;;;;;;;19.37;55.49;97868.06;5069552;28;20674;-70
2023/07/23 05:46:17;;;;;;;5.30;3.40;;;;;;;19.42;55.20;97865.22;5069661;28;20033;-70
2023/07/23 05:48:42;;;;;;;3.63;3.25;;;;;;;19.65;54.78;97859.41;5069445;28;20518;-71
2023/07/23 05:51:07;;;;;;;6.65;3.95;;;;;;;19.54;54.56;97863.53;5067808;28;20017;-71
2023/07/23 05:53:33;;;;;;;6.45;3.72;;;;;;;19.53;54.93;97861.13;5066792;28;20158;-70
2023/07/23 05:55:58;;;;;;;6.65;3.95;;;;;;;19.67;54.72;97862.66;5048066;28;20028;-70
2023/07/23 05:58:24;;;;;;;4.32;3.10;;;;;;;19.70;54.45;97862.03;5067544;28;20414;-70
2023/07/23 06:00:50;;;;;;;5.63;3.22;;;;;;;19.58;54.63;97866.47;5069354;28;20073;-70
2023/07/23 06:03:15;;;;;;;4.93;3.50;;;;;;;19.78;53.90;97864.03;5069218;28;20120;-70
2023/07/23 06:05:41;;;;;;;4.50;3.45;;;;;;;19.89;53.91;97859.09;5071390;28;20060;-70
2023/07/23 06:08:06;;;;;;;4.53;3.47;;;;;;;20.17;53.43;97860.53;5090660;28;20039;-70
2023/07/23 06:10:32;;;;;;;4.97;3.47;;;;;;;20.21;52.98;97871.66;5089419;28;20035;-70
2023/07/23 06:12:57;;;;;;;3.97;3.22;;;;;;;20.48;52.65;97861.34;5090564;28;20070;-70
2023/07/23 06:15:23;;;;;;;6.05;3.58;;;;;;;20.51;52.48;97860.69;5089374;28;20024;-70
2023/07/23 06:17:48;;;;;;;6.72;3.70;;;;;;;20.33;52.61;97864.50;5090488;28;20038;-71
2023/07/23 06:20:14;;;;;;;6.78;3.90;;;;;;;20.64;53.17;97864.47;5090615;28;20024;-70
2023/07/23 06:22:42;;;;;;;5.28;3.53;;;;;;;20.70;52.33;97856.91;5081438;28;20486;-70
2023/07/23 06:25:07;;;;;;;5.50;3.53;;;;;;;20.82;53.26;97865.34;5070611;28;20103;-71
2023/07/23 06:27:33;;;;;;;7.93;3.60;;;;;;;20.65;52.74;97855.91;5069544;28;20483;-70
2023/07/23 06:29:58;;;;;;;4.05;3.30;;;;;;;20.74;52.00;97855.16;5070398;28;20530;-71
2023/07/23 06:32:24;;;;;;;4.22;3.13;;;;;;;20.92;51.34;97859.53;5076570;28;20398;-70
2023/07/23 06:34:49;;;;;;;5.45;3.70;;;;;;;21.23;51.06;97843.81;5090354;28;20054;-71
2023/07/23 06:37:15;;;;;;;4.28;3.00;;;;;;;21.47;50.99;97849.59;5090034;28;20040;-72
2023/07/23 06:39:40;;;;;;;5.03;3.00;;;;;;;21.27;50.86;97855.75;5076149;28;20024;-73
2023/07/23 06:42:06;;;;;;;4.22;3.40;;;;;;;21.44;50.56;97855.75;5062838;28;20135;-77
2023/07/23 06:44:31;;;;;;;5.95;3.38;;;;;;;21.55;50.48;97850.75;5053386;28;20021;-75
2023/07/23 06:47:06;;;;;;;4.70;3.42;;;;;;;21.70;50.94;97851.06;5073904;28;20036;-76
2023/07/23 06:49:32;;;;;;;5.07;3.30;;;;;;;21.31;50.96;97857.50;5059813;28;20040;-76
2023/07/23 06:51:57;;;;;;;4.60;3.40;;;;;;;21.61;50.76;97850.25;5093558;28;20028;-75
2023/07/23 06:54:23;;;;;;;16.52;5.15;;;;;;;21.69;50.54;97856.84;5059250;28;20028;-73
2023/07/23 06:56:50;;;;;;;5.32;3.63;;;;;;;21.78;50.67;97858.47;5076098;28;20024;-73
2023/07/23 06:59:16;;;;;;;4.88;3.38;;;;;;;22.01;49.40;97851.66;5074433;28;20036;-74
2023/07/23 07:01:41;;;;;;;4.00;3.30;;;;;;;21.85;49.97;97853.31;5083868;28;20165;-73
2023/07/23 07:04:07;;;;;;;4.28;3.33;;;;;;;21.66;50.72;97852.81;5092330;28;20097;-74
2023/07/23 07:06:32;;;;;;;5.60;3.28;;;;;;;21.99;50.22;97856.66;5092600;28;20077;-74
2023/07/23 07:08:57;;;;;;;3.85;3.28;;;;;;;21.79;49.74;97862.81;5085684;28;20425;-73
2023/07/23 07:11:23;;;;;;;4.88;3.20;;;;;;;21.57;49.84;97849.28;5072253;28;20198;-73
2023/07/23 07:13:48;;;;;;;3.55;3.00;;;;;;;21.63;49.07;97858.97;5071948;28;20093;-73
2023/07/23 07:16:13;;;;;;;5.70;3.10;;;;;;;21.48;49.78;97859.44;5066589;28;20040;-74
2023/07/23 07:18:39;;;;;;;82.38;18.35;;;;;;;21.57;50.25;97849.28;5087861;28;20036;-74
2023/07/23 07:21:04;;;;;;;4.25;3.15;;;;;;;21.39;49.99;97853.16;5084498;28;20052;-73
2023/07/23 07:23:30;;;;;;;17.48;10.73;;;;;;;21.93;49.35;97863.47;5087743;28;20546;-74
2023/07/23 07:26:00;;;;;;;6.78;3.70;;;;;;;22.23;49.30;97855.31;5071968;28;20391;-74
2023/07/23 07:28:27;;;;;;;4.20;3.35;;;;;;;22.58;48.43;97873.25;5072513;28;20032;-73
2023/07/23 07:31:00;;;;;;;3.72;3.38;;;;;;;22.38;48.43;97868.50;5064935;28;20024;-73
2023/07/23 07:33:26;;;;;;;4.00;3.20;;;;;;;22.18;47.91;97863.72;5069736;28;20403;-74
2023/07/23 07:35:54;;;;;;;5.28;3.78;;;;;;;22.39;48.37;97864.59;5066556;28;20032;-74
2023/07/23 07:38:19;;;;;;;7.68;3.20;;;;;;;22.04;49.00;97869.41;5091768;28;20047;-74
2023/07/23 07:40:44;;;;;;;4.50;3.42;;;;;;;22.27;48.38;97861.75;5060178;28;20025;-74
2023/07/23 07:43:10;;;;;;;3.22;2.92;;;;;;;22.18;48.60;97866.47;5074505;28;20059;-74
2023/07/23 07:45:35;;;;;;;3.78;3.20;;;;;;;22.24;47.95;97876.13;5092933;28;20032;-74
2023/07/23 07:48:01;;;;;;;4.68;3.45;;;;;;;22.26;48.31;97862.91;5093740;28;20060;-76
2023/07/23 07:50:26;;;;;;;4.43;3.08;;;;;;;22.63;48.09;97871.16;5076547;28;20461;-77
2023/07/23 07:52:51;;;;;;;4.00;3.08;;;;;;;23.00;47.31;97869.50;5092957;28;20035;-76
2023/07/23 07:55:17;;;;;;;3.85;3.00;;;;;;;22.70;48.25;97870.66;5076058;28;20028;-77
2023/07/23 07:57:42;;;;;;;4.18;3.15;;;;;;;23.13;47.25;97865.69;5093329;28;20427;-77
2023/07/23 08:00:08;;;;;;;5.28;3.10;;;;;;;22.91;47.61;97866.00;5061403;28;20025;-70
2023/07/23 08:02:37;;;;;;;4.35;3.20;;;;;;;22.93;47.26;97862.91;5075053;28;20146;-75
2023/07/23 08:05:03;;;;;;;5.55;3.55;;;;;;;23.00;47.60;97852.22;5075401;28;20024;-75
2023/07/23 08:07:28;;;;;;;4.43;3.17;;;;;;;22.77;47.44;97859.94;5091970;28;20122;-77
2023/07/23 08:09:56;;;;;;;3.92;3.08;;;;;;;23.53;46.29;97848.75;5091992;28;20100;-75
2023/07/23 08:12:22;;;;;;;6.30;3.53;;;;;;;23.60;44.95;97843.53;5058408;28;20027;-77
2023/07/23 08:14:48;;;;;;;4.53;3.53;;;;;;;23.85;43.98;97843.28;5093079;28;20033;-75
2023/07/23 08:17:13;;;;;;;3.88;3.45;;;;;;;;;;5074678;28;20396;-77
2023/07/23 08:19:39;;;;;;;5.30;3.10;;;;;;;23.42;45.27;97839.31;5072298;28;20484;-74
2023/07/23 08:22:05;;;;;;;3.80;3.13;;;;;;;22.91;45.67;97844.03;5052624;28;20036;-76
2023/07/23 08:24:30;;;;;;;1999.90;999.90;;;;;;;22.81;45.83;97849.91;5063885;28;20103;-76
2023/07/23 08:26:57;;;;;;;3.13;2.20;;;;;;;22.75;44.17;97859.47;5072217;28;20106;-77
2023/07/23 08:29:24;;;;;;;5.43;2.30;;;;;;;22.41;43.49;97848.63;5030938;28;20420;-75
2023/07/23 08:31:50;;;;;;;4.47;3.05;;;;;;;22.39;44.11;97850.88;5046375;28;20060;-77
2023/07/23 08:34:17;;;;;;;44.65;4.95;;;;;;;22.58;43.27;97854.03;5064067;28;20028;-77
2023/07/23 08:36:44;;;;;;;4.90;2.50;;;;;;;22.63;43.30;97859.38;5051791;28;20029;-75
2023/07/23 08:39:09;;;;;;;4.25;2.40;;;;;;;23.15;42.75;97848.88;5043803;28;20035;-77
2023/07/23 08:42:00;;;;;;;4.63;2.72;;;;;;;23.44;41.61;97842.53;5051860;28;20036;-75
2023/07/23 08:45:03;;;;;;;3.00;2.00;;;;;;;23.44;42.02;97837.03;5049108;28;20395;-77
2023/07/23 08:47:29;;;;;;;2.75;1.90;;;;;;;24.01;41.63;97835.19;5071700;28;20040;-76
2023/07/23 08:49:56;;;;;;;4.28;2.25;;;;;;;23.85;40.94;97840.53;5034991;28;20040;-76
2023/07/23 08:52:22;;;;;;;3.40;2.22;;;;;;;23.99;40.17;97835.50;5080223;28;20028;-77
2023/07/23 08:54:48;;;;;;;7.70;2.83;;;;;;;24.26;41.43;97828.63;5091916;28;20024;-77
2023/07/23 08:57:13;;;;;;;2.33;1.92;;;;;;;24.61;40.71;97827.03;5092705;28;20116;-76
2023/07/23 08:59:39;;;;;;;2.88;1.77;;;;;;;24.41;40.73;97830.69;5051178;28;20499;-78
2023/07/23 09:02:07;;;;;;;5.63;3.08;;;;;;;24.52;40.84;97837.38;5065356;28;20033;-77
2023/07/23 09:04:34;;;;;;;3.53;2.55;;;;;;;24.28;40.94;97837.34;5070412;28;20055;-76
2023/07/23 09:07:00;;;;;;;4.53;2.78;;;;;;;23.93;41.20;97825.06;5068328;28;20028;-76
2023/07/23 09:09:26;;;;;;;3.28;2.70;;;;;;;23.97;41.04;97837.00;5090651;28;20524;-77
2023/07/23 09:11:51;;;;;;;3.70;2.60;;;;;;;24.24;40.95;97830.91;5090787;28;20511;-76
2023/07/23 09:14:17;;;;;;;3.63;2.38;;;;;;;24.93;40.85;97835.53;5073435;28;20031;-76
2023/07/23 09:16:47;;;;;;;4.35;2.38;;;;;;;24.33;40.51;97833.56;5091414;28;20130;-76
2023/07/23 09:19:14;;;;;;;3.33;2.35;;;;;;;24.55;40.56;97847.69;5090663;28;20028;-77
2023/07/23 09:21:44;;;;;;;5.13;2.50;;;;;;;24.66;40.60;97831.50;5074035;28;20457;-76
2023/07/23 09:24:12;;;;;;;3.70;2.40;;;;;;;24.76;40.07;97835.75;5082292;28;20060;-77
2023/07/23 09:26:38;;;;;;;4.93;2.50;;;;;;;24.92;39.02;97823.72;5053563;28;20052;-77
2023/07/23 09:29:08;;;;;;;2.35;1.92;;;;;;;24.51;40.22;97835.75;5065835;28;20063;-77
2023/07/23 09:31:34;;;;;;;5.20;1.95;;;;;;;24.47;40.35;97840.34;5053358;28;20090;-76
2023/07/23 09:34:01;;;;;;;3.53;1.40;;;;;;;24.77;40.63;97837.38;5046069;28;20369;-77
2023/07/23 09:36:27;;;;;;;3.22;1.45;;;;;;;24.50;39.85;97845.16;5073702;28;20040;-76
2023/07/23 09:39:07;;;;;;;6.22;1.33;;;;;;;24.36;39.98;97828.19;5089960;28;20111;-76
2023/07/23 09:41:37;;;;;;;4.50;2.05;;;;;;;24.99;38.91;97817.63;5090340;28;20036;-76
2023/07/23 09:44:07;;;;;;;3.35;1.90;;;;;;;24.64;39.43;97839.31;5089925;28;20040;-75
2023/07/23 09:46:33;;;;;;;4.60;2.30;;;;;;;24.82;38.66;97839.91;5056815;28;20440;-76
2023/07/23 09:48:59;;;;;;;6.18;3.15;;;;;;;24.70;39.28;97844.25;5090225;28;20027;-75
2023/07/23 09:51:24;;;;;;;5.65;2.20;;;;;;;25.71;38.40;97830.41;5073526;28;20049;-76
2023/07/23 09:53:50;;;;;;;2.30;2.05;;;;;;;24.90;38.50;97820.47;5090055;28;20028;-76
2023/07/23 09:56:16;;;;;;;5.90;2.00;;;;;;;25.86;38.28;97819.41;5090084;28;20051;-77
2023/07/23 09:58:43;;;;;;;5.43;1.95;;;;;;;25.11;38.85;97847.91;5090327;28;20032;-76
2023/07/23 10:01:09;;;;;;;3.70;2.20;;;;;;;25.05;39.21;97818.97;5073501;28;20052;-77
2023/07/23 10:03:35;;;;;;;3.42;2.08;;;;;;;25.16;39.16;97800.78;5073195;28;20042;-76
2023/07/23 10:06:01;;;;;;;4.95;2.25;;;;;;;25.80;38.26;97826.34;5090243;28;20456;-77
2023/07/23 10:08:27;;;;;;;3.25;2.17;;;;;;;25.59;38.14;97825.75;5090206;28;20099;-76
2023/07/23 10:10:52;;;;;;;4.95;1.92;;;;;;;25.90;38.54;97803.75;5056776;28;20035;-76
2023/07/23 10:13:18;;;;;;;3.20;2.38;;;;;;;25.83;38.62;97813.78;5057511;28;20025;-76
2023/07/23 10:15:43;;;;;;;4.10;1.63;;;;;;;25.86;37.91;97813.88;5080055;28;20071;-76
2023/07/23 10:18:10;;;;;;;2.47;1.90;;;;;;;25.52;38.54;97803.47;5086744;28;20020;-77
2023/07/23 10:20:36;;;;;;;2.70;1.98;;;;;;;26.38;37.68;97807.38;5094611;28;20110;-76
2023/07/23 10:23:05;;;;;;;2.55;2.28;;;;;;;26.43;37.70;97821.72;5094160;28;20047;-77
2023/07/23 10:25:32;;;;;;;3.47;2.15;;;;;;;26.49;37.72;97830.56;5054201;28;20048;-77
2023/07/23 10:28:00;;;;;;;2.58;2.08;;;;;;;26.13;37.31;97816.97;5080822;28;20024;-76
2023/07/23 10:30:27;;;;;;;2.72;2.17;;;;;;;26.24;37.31;97801.47;5060469;28;20784;-77
2023/07/23 10:33:10;;;;;;;4.07;2.10;;;;;;;25.94;36.83;97796.38;5077242;28;20016;-75
2023/07/23 10:36:02;;;;;;;2.83;1.92;;;;;;;25.76;37.67;97797.84;5071606;28;20036;-77
2023/07/23 10:38:34;;;;;;;2.85;2.17;;;;;;;25.41;37.46;97803.13;5069397;28;20037;-77
2023/07/23 10:41:00;;;;;;;4.88;2.13;;;;;;;25.47;37.31;97794.63;5067995;28;20482;-77
2023/07/23 10:43:44;;;;;;;2.97;2.08;;;;;;;25.68;36.25;97786.97;5055854;28;20119;-77
2023/07/23 10:46:14;;;;;;;3.42;2.00;;;;;;;25.94;35.81;97777.06;5072666;28;20044;-77
2023/07/23 10:48:50;;;;;;;2.97;1.95;;;;;;;25.57;36.43;97778.41;5068687;28;20033;-76
2023/07/23 10:51:19;;;;;;;4.35;1.98;;;;;;;25.59;36.31;97787.13;5074420;28;20036;-76
2023/07/23 10:54:05;;;;;;;2.83;2.20;;;;;;;25.83;35.60;97787.00;5052285;28;20024;-76
2023/07/23 10:56:39;;;;;;;3.73;1.97;;;;;;;25.89;36.18;97780.06;5068797;28;20395;-77
2023/07/23 10:59:09;;;;;;;2.50;1.90;;;;;;;26.22;36.41;97785.28;5055968;28;20068;-77
2023/07/23 11:01:43;;;;;;;2.88;2.05;;;;;;;25.98;36.76;97777.94;5054034;28;20036;-75
2023/07/23 11:04:13;;;;;;;5.03;1.85;;;;;;;25.76;37.45;97770.28;5071493;28;20402;-77
2023/07/23 11:06:53;;;;;;;2.38;2.10;;;;;;;26.02;37.33;97767.78;5053258;28;20024;-78
2023/07/23 11:09:26;;;;;;;5.38;2.35;;;;;;;25.94;36.68;97771.53;5054241;28;20120;-77
2023/07/23 11:11:52;;;;;;;3.42;2.22;;;;;;;25.98;36.18;97766.91;5049692;28;20036;-77
2023/07/23 11:14:23;;;;;;;4.20;2.25;;;;;;;25.73;36.18;97768.22;5053698;28;20091;-76
2023/07/23 11:16:51;;;;;;;3.50;2.30;;;;;;;25.76;36.23;97762.00;5068140;28;20040;-77
2023/07/23 11:19:18;;;;;;;2.45;2.10;;;;;;;25.95;36.11;97751.03;5073599;28;20028;-77
2023/07/23 11:21:50;;;;;;;5.10;3.85;;;;;;;26.13;35.96;97750.72;5055321;28;20036;-77
2023/07/23 11:24:17;;;;;;;5.10;2.50;;;;;;;26.01;35.80;97755.16;5062914;28;20491;-77
2023/07/23 11:26:43;;;;;;;15.10;3.75;;;;;;;26.04;34.90;97737.88;5056617;28;20024;-77
2023/07/23 11:29:09;;;;;;;3.83;1.80;;;;;;;25.95;35.20;97744.75;5073365;28;20459;-77
2023/07/23 11:31:35;;;;;;;4.97;1.98;;;;;;;26.15;34.75;97740.13;5072751;28;20071;-77